sensor_id;sensor_type;location;lat;lon;timestamp;temperature;humidity
18041;DHT22;9145;48.588;9.250;2023-02-04T00:00:23;6.20;99.90
18041;DHT22;9145;48.588;9.250;2023-02-04T00:02:50;6.20;99.90
18041;DHT22;9145;48.588;9.250;2023-02-04T00:05:17;6.20;99.90
18041;DHT22;9145;48.588;9.250;2023-02-04T00:07:46;6.20;99.90
18041;DHT22;9145;48.588;9.250;2023-02-04T00:10:14;6.20;99.90
18041;DHT22;9145;48.588;9.250;2023-02-04T00:12:41;6.20;99.90
18041;DHT22;9145;48.588;9.250;2023-02-04T00:15:08;6.20;99.90
18041;DHT22;9145;48.588;9.250;2023-02-04T00:17:35;6.20;99.90
18041;DHT22;9145;48.588;9.250;2023-02-04T00:20:04;6.10;99.90
18041;DHT22;9145;48.588;9.250;2023-02-04T00:22:32;6.10;99.90
18041;DHT22;9145;48.588;9.250;2023-02-04T00:24:59;6.10;99.90
18041;DHT22;9145;48.588;9.250;2023-02-04T00:27:27;6.10;99.90
18041;DHT22;9145;48.588;9.250;2023-02-04T00:29:54;6.10;99.90
18041;DHT22;9145;48.588;9.250;2023-02-04T00:32:21;6.10;99.90
18041;DHT22;9145;48.588;9.250;2023-02-04T00:34:48;6.10;99.90
18041;DHT22;9145;48.588;9.250;2023-02-04T00:37:15;6.10;99.90
18041;DHT22;9145;48.588;9.250;2023-02-04T00:39:42;6.10;99.90
18041;DHT22;9145;48.588;9.250;2023-02-04T00:42:09;6.10;99.90
18041;DHT22;9145;48.588;9.250;2023-02-04T00:44:37;6.10;99.90
18041;DHT22;9145;48.588;9.250;2023-02-04T00:47:04;6.10;99.90
18041;DHT22;9145;48.588;9.250;2023-02-04T00:49:32;6.10;99.90
18041;DHT22;9145;48.588;9.250;2023-02-04T00:52:00;6.20;99.90
18041;DHT22;9145;48.588;9.250;2023-02-04T00:54:27;6.20;99.90
18041;DHT22;9145;48.588;9.250;2023-02-04T00:56:54;6.20;99.90
18041;DHT22;9145;48.588;9.250;2023-02-04T00:59:20;6.10;99.90
18041;DHT22;9145;48.588;9.250;2023-02-04T01:01:48;6.10;99.90
18041;DHT22;9145;48.588;9.250;2023-02-04T01:04:16;6.20;99.90
18041;DHT22;9145;48.588;9.250;2023-02-04T01:06:42;6.20;99.90
18041;DHT22;9145;48.588;9.250;2023-02-04T01:09:09;6.20;99.90
18041;DHT22;9145;48.588;9.250;2023-02-04T01:11:37;6.20;99.90
18041;DHT22;9145;48.588;9.250;2023-02-04T01:14:04;6.20;99.90
18041;DHT22;9145;48.588;9.250;2023-02-04T01:16:30;6.20;99.90
18041;DHT22;9145;48.588;9.250;2023-02-04T01:18:58;6.30;99.90
18041;DHT22;9145;48.588;9.250;2023-02-04T01:21:25;6.30;99.90
18041;DHT22;9145;48.588;9.250;2023-02-04T01:23:52;6.30;99.90
18041;DHT22;9145;48.588;9.250;2023-02-04T01:26:19;6.30;99.90
18041;DHT22;9145;48.588;9.250;2023-02-04T01:28:46;6.40;99.90
18041;DHT22;9145;48.588;9.250;2023-02-04T01:31:13;6.30;99.90
18041;DHT22;9145;48.588;9.250;2023-02-04T01:33:40;6.40;99.90
18041;DHT22;9145;48.588;9.250;2023-02-04T01:36:09;6.40;99.90
18041;DHT22;9145;48.588;9.250;2023-02-04T01:38:36;6.50;99.90
18041;DHT22;9145;48.588;9.250;2023-02-04T01:41:03;6.50;99.90
18041;DHT22;9145;48.588;9.250;2023-02-04T01:43:31;6.50;99.90
18041;DHT22;9145;48.588;9.250;2023-02-04T01:45:59;6.60;99.90
18041;DHT22;9145;48.588;9.250;2023-02-04T01:48:27;6.70;99.90
18041;DHT22;9145;48.588;9.250;2023-02-04T01:50:58;6.70;99.90
18041;DHT22;9145;48.588;9.250;2023-02-04T01:53:29;6.70;99.90
18041;DHT22;9145;48.588;9.250;2023-02-04T01:55:55;6.70;99.90
18041;DHT22;9145;48.588;9.250;2023-02-04T01:58:22;6.70;99.90
18041;DHT22;9145;48.588;9.250;2023-02-04T02:00:50;6.80;99.90
18041;DHT22;9145;48.588;9.250;2023-02-04T02:03:16;6.80;99.90
18041;DHT22;9145;48.588;9.250;2023-02-04T02:05:45;6.70;99.90
18041;DHT22;9145;48.588;9.250;2023-02-04T02:08:13;6.70;99.90
18041;DHT22;9145;48.588;9.250;2023-02-04T02:10:44;6.80;99.90
18041;DHT22;9145;48.588;9.250;2023-02-04T02:13:15;6.80;99.90
18041;DHT22;9145;48.588;9.250;2023-02-04T02:15:42;6.90;99.90
18041;DHT22;9145;48.588;9.250;2023-02-04T02:18:10;6.90;99.90
18041;DHT22;9145;48.588;9.250;2023-02-04T02:20:37;6.90;99.90
18041;DHT22;9145;48.588;9.250;2023-02-04T02:23:13;6.80;99.90
18041;DHT22;9145;48.588;9.250;2023-02-04T02:25:42;6.80;99.90
18041;DHT22;9145;48.588;9.250;2023-02-04T02:28:13;6.80;99.90
18041;DHT22;9145;48.588;9.250;2023-02-04T02:30:41;6.70;99.90
18041;DHT22;9145;48.588;9.250;2023-02-04T02:33:10;6.70;99.90
18041;DHT22;9145;48.588;9.250;2023-02-04T02:35:39;6.70;99.90
18041;DHT22;9145;48.588;9.250;2023-02-04T02:38:08;6.60;99.90
18041;DHT22;9145;48.588;9.250;2023-02-04T02:40:35;6.60;99.90
18041;DHT22;9145;48.588;9.250;2023-02-04T02:43:04;6.60;99.90
18041;DHT22;9145;48.588;9.250;2023-02-04T02:45:31;6.50;99.90
18041;DHT22;9145;48.588;9.250;2023-02-04T02:48:00;6.50;99.90
18041;DHT22;9145;48.588;9.250;2023-02-04T02:50:30;6.50;99.90
18041;DHT22;9145;48.588;9.250;2023-02-04T02:52:57;6.40;99.90
18041;DHT22;9145;48.588;9.250;2023-02-04T02:55:26;6.40;99.90
18041;DHT22;9145;48.588;9.250;2023-02-04T02:57:55;6.30;99.90
18041;DHT22;9145;48.588;9.250;2023-02-04T03:00:25;6.40;99.90
18041;DHT22;9145;48.588;9.250;2023-02-04T03:02:55;6.40;99.90
18041;DHT22;9145;48.588;9.250;2023-02-04T03:05:24;6.30;99.90
18041;DHT22;9145;48.588;9.250;2023-02-04T03:07:51;6.40;99.90
18041;DHT22;9145;48.588;9.250;2023-02-04T03:10:18;6.30;99.90
18041;DHT22;9145;48.588;9.250;2023-02-04T03:12:46;6.40;99.90
18041;DHT22;9145;48.588;9.250;2023-02-04T03:15:13;6.40;99.90
18041;DHT22;9145;48.588;9.250;2023-02-04T03:17:42;6.40;99.90
18041;DHT22;9145;48.588;9.250;2023-02-04T03:20:11;6.40;99.90
18041;DHT22;9145;48.588;9.250;2023-02-04T03:22:39;6.40;99.90
18041;DHT22;9145;48.588;9.250;2023-02-04T03:25:07;6.40;99.90
18041;DHT22;9145;48.588;9.250;2023-02-04T03:27:33;6.40;99.90
18041;DHT22;9145;48.588;9.250;2023-02-04T03:30:00;6.50;99.90
18041;DHT22;9145;48.588;9.250;2023-02-04T03:32:27;6.50;99.90
18041;DHT22;9145;48.588;9.250;2023-02-04T03:34:55;6.50;99.90
18041;DHT22;9145;48.588;9.250;2023-02-04T03:37:22;6.50;99.90
18041;DHT22;9145;48.588;9.250;2023-02-04T03:39:49;6.50;99.90
18041;DHT22;9145;48.588;9.250;2023-02-04T03:42:16;6.50;99.90
18041;DHT22;9145;48.588;9.250;2023-02-04T03:44:43;6.50;99.90
18041;DHT22;9145;48.588;9.250;2023-02-04T03:47:10;6.50;99.90
18041;DHT22;9145;48.588;9.250;2023-02-04T03:49:37;6.50;99.90
18041;DHT22;9145;48.588;9.250;2023-02-04T03:52:05;6.50;99.90
18041;DHT22;9145;48.588;9.250;2023-02-04T03:54:32;6.50;99.90
18041;DHT22;9145;48.588;9.250;2023-02-04T03:56:58;6.50;99.90
18041;DHT22;9145;48.588;9.250;2023-02-04T03:59:25;6.50;99.90
18041;DHT22;9145;48.588;9.250;2023-02-04T04:01:52;6.50;99.90
18041;DHT22;9145;48.588;9.250;2023-02-04T04:04:19;6.50;99.90
18041;DHT22;9145;48.588;9.250;2023-02-04T04:06:46;6.50;99.90
18041;DHT22;9145;48.588;9.250;2023-02-04T04:09:14;6.60;99.90
18041;DHT22;9145;48.588;9.250;2023-02-04T04:11:41;6.60;99.90
18041;DHT22;9145;48.588;9.250;2023-02-04T04:14:08;6.50;99.90
18041;DHT22;9145;48.588;9.250;2023-02-04T04:16:34;6.50;99.90
18041;DHT22;9145;48.588;9.250;2023-02-04T04:19:01;6.40;99.90
18041;DHT22;9145;48.588;9.250;2023-02-04T04:21:28;6.40;99.90
18041;DHT22;9145;48.588;9.250;2023-02-04T04:23:55;6.40;99.90
18041;DHT22;9145;48.588;9.250;2023-02-04T04:26:23;6.40;99.90
18041;DHT22;9145;48.588;9.250;2023-02-04T04:28:50;6.30;99.90
18041;DHT22;9145;48.588;9.250;2023-02-04T04:31:17;6.30;99.90
18041;DHT22;9145;48.588;9.250;2023-02-04T04:33:43;6.30;99.90
18041;DHT22;9145;48.588;9.250;2023-02-04T04:36:10;6.30;99.90
18041;DHT22;9145;48.588;9.250;2023-02-04T04:38:37;6.30;99.90
18041;DHT22;9145;48.588;9.250;2023-02-04T04:41:04;6.30;99.90
18041;DHT22;9145;48.588;9.250;2023-02-04T04:43:32;6.30;99.90
18041;DHT22;9145;48.588;9.250;2023-02-04T04:45:59;6.30;99.90
18041;DHT22;9145;48.588;9.250;2023-02-04T04:48:25;6.30;99.90
18041;DHT22;9145;48.588;9.250;2023-02-04T04:50:52;6.30;99.90
18041;DHT22;9145;48.588;9.250;2023-02-04T04:53:19;6.30;99.90
18041;DHT22;9145;48.588;9.250;2023-02-04T04:55:46;6.30;99.90
18041;DHT22;9145;48.588;9.250;2023-02-04T04:58:13;6.30;99.90
18041;DHT22;9145;48.588;9.250;2023-02-04T05:00:41;6.20;99.90
18041;DHT22;9145;48.588;9.250;2023-02-04T05:03:07;6.30;99.90
18041;DHT22;9145;48.588;9.250;2023-02-04T05:05:34;6.20;99.90
18041;DHT22;9145;48.588;9.250;2023-02-04T05:08:05;6.20;99.90
18041;DHT22;9145;48.588;9.250;2023-02-04T05:10:35;6.20;99.90
18041;DHT22;9145;48.588;9.250;2023-02-04T05:13:02;6.30;99.90
18041;DHT22;9145;48.588;9.250;2023-02-04T05:15:28;6.30;99.90
18041;DHT22;9145;48.588;9.250;2023-02-04T05:17:56;6.30;99.90
18041;DHT22;9145;48.588;9.250;2023-02-04T05:20:23;6.40;99.90
18041;DHT22;9145;48.588;9.250;2023-02-04T05:22:51;6.40;99.90
18041;DHT22;9145;48.588;9.250;2023-02-04T05:25:17;6.40;99.90
18041;DHT22;9145;48.588;9.250;2023-02-04T05:27:44;6.40;99.90
18041;DHT22;9145;48.588;9.250;2023-02-04T05:30:12;6.40;99.90
18041;DHT22;9145;48.588;9.250;2023-02-04T05:32:39;6.50;99.90
18041;DHT22;9145;48.588;9.250;2023-02-04T05:35:08;6.50;99.90
18041;DHT22;9145;48.588;9.250;2023-02-04T05:37:35;6.60;99.90
18041;DHT22;9145;48.588;9.250;2023-02-04T05:40:02;6.60;99.90
18041;DHT22;9145;48.588;9.250;2023-02-04T05:42:29;6.70;99.90
18041;DHT22;9145;48.588;9.250;2023-02-04T05:44:56;6.80;99.90
18041;DHT22;9145;48.588;9.250;2023-02-04T05:47:23;6.80;99.90
18041;DHT22;9145;48.588;9.250;2023-02-04T05:49:50;6.90;99.90
18041;DHT22;9145;48.588;9.250;2023-02-04T05:52:18;6.90;99.90
18041;DHT22;9145;48.588;9.250;2023-02-04T05:54:45;6.80;99.90
18041;DHT22;9145;48.588;9.250;2023-02-04T05:57:11;6.80;99.90
18041;DHT22;9145;48.588;9.250;2023-02-04T05:59:38;6.60;99.90
18041;DHT22;9145;48.588;9.250;2023-02-04T06:02:05;6.60;99.90
18041;DHT22;9145;48.588;9.250;2023-02-04T06:04:32;6.60;99.90
18041;DHT22;9145;48.588;9.250;2023-02-04T06:06:59;6.70;99.90
18041;DHT22;9145;48.588;9.250;2023-02-04T06:09:27;6.80;99.90
18041;DHT22;9145;48.588;9.250;2023-02-04T06:11:54;6.80;99.90
18041;DHT22;9145;48.588;9.250;2023-02-04T06:14:22;6.80;99.90
18041;DHT22;9145;48.588;9.250;2023-02-04T06:16:48;6.80;99.90
18041;DHT22;9145;48.588;9.250;2023-02-04T06:19:15;6.80;99.90
18041;DHT22;9145;48.588;9.250;2023-02-04T06:21:42;6.90;99.90
18041;DHT22;9145;48.588;9.250;2023-02-04T06:24:09;6.90;99.90
18041;DHT22;9145;48.588;9.250;2023-02-04T06:26:37;6.90;99.90
18041;DHT22;9145;48.588;9.250;2023-02-04T06:29:04;6.90;99.90
18041;DHT22;9145;48.588;9.250;2023-02-04T06:31:31;7.00;99.90
18041;DHT22;9145;48.588;9.250;2023-02-04T06:33:57;7.00;99.90
18041;DHT22;9145;48.588;9.250;2023-02-04T06:36:24;7.00;99.90
18041;DHT22;9145;48.588;9.250;2023-02-04T06:38:51;7.00;99.90
18041;DHT22;9145;48.588;9.250;2023-02-04T06:41:18;6.90;99.90
18041;DHT22;9145;48.588;9.250;2023-02-04T06:43:46;6.90;99.90
18041;DHT22;9145;48.588;9.250;2023-02-04T06:46:13;6.80;99.90
18041;DHT22;9145;48.588;9.250;2023-02-04T06:48:40;6.70;99.90
18041;DHT22;9145;48.588;9.250;2023-02-04T06:51:07;6.70;99.90
18041;DHT22;9145;48.588;9.250;2023-02-04T06:53:34;6.70;99.90
18041;DHT22;9145;48.588;9.250;2023-02-04T06:56:00;6.60;99.90
18041;DHT22;9145;48.588;9.250;2023-02-04T06:58:27;6.60;99.90
18041;DHT22;9145;48.588;9.250;2023-02-04T07:00:55;6.50;99.90
18041;DHT22;9145;48.588;9.250;2023-02-04T07:03:22;6.50;99.90
18041;DHT22;9145;48.588;9.250;2023-02-04T07:05:49;6.50;99.90
18041;DHT22;9145;48.588;9.250;2023-02-04T07:08:17;6.50;99.90
18041;DHT22;9145;48.588;9.250;2023-02-04T07:10:44;6.50;99.90
18041;DHT22;9145;48.588;9.250;2023-02-04T07:13:11;6.50;99.90
18041;DHT22;9145;48.588;9.250;2023-02-04T07:15:37;6.40;99.90
18041;DHT22;9145;48.588;9.250;2023-02-04T07:18:05;6.30;99.90
18041;DHT22;9145;48.588;9.250;2023-02-04T07:20:32;6.30;99.90
18041;DHT22;9145;48.588;9.250;2023-02-04T07:22:59;6.30;99.90
18041;DHT22;9145;48.588;9.250;2023-02-04T07:25:26;6.30;99.90
18041;DHT22;9145;48.588;9.250;2023-02-04T07:27:53;6.30;99.90
18041;DHT22;9145;48.588;9.250;2023-02-04T07:30:20;6.30;99.90
18041;DHT22;9145;48.588;9.250;2023-02-04T07:32:47;6.30;99.90
18041;DHT22;9145;48.588;9.250;2023-02-04T07:35:15;6.30;99.90
18041;DHT22;9145;48.588;9.250;2023-02-04T07:37:43;6.30;99.90
18041;DHT22;9145;48.588;9.250;2023-02-04T07:40:11;6.20;99.90
18041;DHT22;9145;48.588;9.250;2023-02-04T07:42:38;6.20;99.90
18041;DHT22;9145;48.588;9.250;2023-02-04T07:45:05;6.30;99.90
18041;DHT22;9145;48.588;9.250;2023-02-04T07:47:32;6.30;99.90
18041;DHT22;9145;48.588;9.250;2023-02-04T07:49:59;6.20;99.90
18041;DHT22;9145;48.588;9.250;2023-02-04T07:52:27;6.20;99.90
18041;DHT22;9145;48.588;9.250;2023-02-04T07:54:54;6.20;99.90
18041;DHT22;9145;48.588;9.250;2023-02-04T07:57:20;6.20;99.90
18041;DHT22;9145;48.588;9.250;2023-02-04T07:59:47;6.20;99.90
18041;DHT22;9145;48.588;9.250;2023-02-04T08:02:14;6.30;99.90
18041;DHT22;9145;48.588;9.250;2023-02-04T08:04:41;6.30;99.90
18041;DHT22;9145;48.588;9.250;2023-02-04T08:07:08;6.30;99.90
18041;DHT22;9145;48.588;9.250;2023-02-04T08:09:36;6.30;99.90
18041;DHT22;9145;48.588;9.250;2023-02-04T08:12:03;6.30;99.90
18041;DHT22;9145;48.588;9.250;2023-02-04T08:14:30;6.30;99.90
18041;DHT22;9145;48.588;9.250;2023-02-04T08:16:57;6.30;99.90
18041;DHT22;9145;48.588;9.250;2023-02-04T08:19:23;6.30;99.90
18041;DHT22;9145;48.588;9.250;2023-02-04T08:21:50;6.30;99.90
18041;DHT22;9145;48.588;9.250;2023-02-04T08:24:17;6.30;99.90
18041;DHT22;9145;48.588;9.250;2023-02-04T08:26:45;6.40;99.90
18041;DHT22;9145;48.588;9.250;2023-02-04T08:29:12;6.50;99.90
18041;DHT22;9145;48.588;9.250;2023-02-04T08:31:39;6.50;99.90
18041;DHT22;9145;48.588;9.250;2023-02-04T08:34:06;6.50;99.90
18041;DHT22;9145;48.588;9.250;2023-02-04T08:36:32;6.50;99.90
18041;DHT22;9145;48.588;9.250;2023-02-04T08:38:59;6.60;99.90
18041;DHT22;9145;48.588;9.250;2023-02-04T08:41:26;6.60;99.90
18041;DHT22;9145;48.588;9.250;2023-02-04T08:43:55;6.60;99.90
18041;DHT22;9145;48.588;9.250;2023-02-04T08:46:22;6.70;99.90
18041;DHT22;9145;48.588;9.250;2023-02-04T08:48:49;6.70;99.90
18041;DHT22;9145;48.588;9.250;2023-02-04T08:51:16;6.70;99.90
18041;DHT22;9145;48.588;9.250;2023-02-04T08:53:43;6.70;99.90
18041;DHT22;9145;48.588;9.250;2023-02-04T08:56:09;6.80;99.90
18041;DHT22;9145;48.588;9.250;2023-02-04T08:58:41;6.90;99.90
18041;DHT22;9145;48.588;9.250;2023-02-04T09:01:09;7.00;99.90
18041;DHT22;9145;48.588;9.250;2023-02-04T09:03:36;7.10;99.90
18041;DHT22;9145;48.588;9.250;2023-02-04T09:06:04;7.20;99.90
18041;DHT22;9145;48.588;9.250;2023-02-04T09:08:31;7.30;99.90
18041;DHT22;9145;48.588;9.250;2023-02-04T09:10:58;7.30;99.90
18041;DHT22;9145;48.588;9.250;2023-02-04T09:13:25;7.30;99.90
18041;DHT22;9145;48.588;9.250;2023-02-04T09:15:52;7.30;99.90
18041;DHT22;9145;48.588;9.250;2023-02-04T09:18:20;7.20;99.90
18041;DHT22;9145;48.588;9.250;2023-02-04T09:20:49;7.20;99.90
18041;DHT22;9145;48.588;9.250;2023-02-04T09:23:16;7.20;99.90
18041;DHT22;9145;48.588;9.250;2023-02-04T09:25:44;7.10;99.90
18041;DHT22;9145;48.588;9.250;2023-02-04T09:28:12;7.20;99.90
18041;DHT22;9145;48.588;9.250;2023-02-04T09:30:40;7.10;99.90
18041;DHT22;9145;48.588;9.250;2023-02-04T09:33:08;7.10;99.90
18041;DHT22;9145;48.588;9.250;2023-02-04T09:35:37;7.10;99.90
18041;DHT22;9145;48.588;9.250;2023-02-04T09:38:03;7.20;99.90
18041;DHT22;9145;48.588;9.250;2023-02-04T09:40:32;7.20;99.90
18041;DHT22;9145;48.588;9.250;2023-02-04T09:43:01;7.30;99.90
18041;DHT22;9145;48.588;9.250;2023-02-04T09:45:31;7.30;99.90
18041;DHT22;9145;48.588;9.250;2023-02-04T09:48:01;7.30;99.90
18041;DHT22;9145;48.588;9.250;2023-02-04T09:50:29;7.40;99.90
18041;DHT22;9145;48.588;9.250;2023-02-04T09:53:02;7.40;99.90
18041;DHT22;9145;48.588;9.250;2023-02-04T09:55:32;7.40;99.90
18041;DHT22;9145;48.588;9.250;2023-02-04T09:57:59;7.50;99.90
18041;DHT22;9145;48.588;9.250;2023-02-04T10:00:28;7.50;99.90
18041;DHT22;9145;48.588;9.250;2023-02-04T10:02:56;7.50;99.90
18041;DHT22;9145;48.588;9.250;2023-02-04T10:05:28;7.50;99.90
18041;DHT22;9145;48.588;9.250;2023-02-04T10:07:58;7.50;99.90
18041;DHT22;9145;48.588;9.250;2023-02-04T10:10:26;7.50;99.90
18041;DHT22;9145;48.588;9.250;2023-02-04T10:12:55;7.50;99.90
18041;DHT22;9145;48.588;9.250;2023-02-04T10:15:22;7.60;99.90
18041;DHT22;9145;48.588;9.250;2023-02-04T10:17:52;7.70;99.90
18041;DHT22;9145;48.588;9.250;2023-02-04T10:20:21;7.70;99.90
18041;DHT22;9145;48.588;9.250;2023-02-04T10:22:51;7.80;99.90
18041;DHT22;9145;48.588;9.250;2023-02-04T10:25:21;7.90;99.90
18041;DHT22;9145;48.588;9.250;2023-02-04T10:27:50;8.00;99.90
18041;DHT22;9145;48.588;9.250;2023-02-04T10:30:20;8.00;99.90
18041;DHT22;9145;48.588;9.250;2023-02-04T10:32:48;8.00;99.90
18041;DHT22;9145;48.588;9.250;2023-02-04T10:35:17;8.10;99.90
18041;DHT22;9145;48.588;9.250;2023-02-04T10:37:44;8.10;99.90
18041;DHT22;9145;48.588;9.250;2023-02-04T10:40:30;8.20;99.90
18041;DHT22;9145;48.588;9.250;2023-02-04T10:42:58;8.40;99.90
18041;DHT22;9145;48.588;9.250;2023-02-04T10:45:26;8.60;99.90
18041;DHT22;9145;48.588;9.250;2023-02-04T10:47:55;8.70;99.90
18041;DHT22;9145;48.588;9.250;2023-02-04T10:50:23;8.80;99.90
18041;DHT22;9145;48.588;9.250;2023-02-04T10:52:52;8.70;99.90
18041;DHT22;9145;48.588;9.250;2023-02-04T10:55:21;8.60;99.90
18041;DHT22;9145;48.588;9.250;2023-02-04T10:57:51;8.60;99.90
18041;DHT22;9145;48.588;9.250;2023-02-04T11:00:20;8.50;99.90
18041;DHT22;9145;48.588;9.250;2023-02-04T11:02:55;8.30;99.90
18041;DHT22;9145;48.588;9.250;2023-02-04T11:05:29;8.20;99.90
18041;DHT22;9145;48.588;9.250;2023-02-04T11:07:56;8.40;99.90
18041;DHT22;9145;48.588;9.250;2023-02-04T11:10:28;8.60;99.90
18041;DHT22;9145;48.588;9.250;2023-02-04T11:13:02;8.80;99.90
18041;DHT22;9145;48.588;9.250;2023-02-04T11:15:39;9.10;99.90
18041;DHT22;9145;48.588;9.250;2023-02-04T11:18:07;9.50;99.90
18041;DHT22;9145;48.588;9.250;2023-02-04T11:20:36;9.80;99.90
18041;DHT22;9145;48.588;9.250;2023-02-04T11:23:16;9.80;99.90
18041;DHT22;9145;48.588;9.250;2023-02-04T11:25:43;9.60;99.90
18041;DHT22;9145;48.588;9.250;2023-02-04T11:28:15;9.40;99.90
18041;DHT22;9145;48.588;9.250;2023-02-04T11:30:42;9.30;99.90
18041;DHT22;9145;48.588;9.250;2023-02-04T11:33:22;9.20;99.90
18041;DHT22;9145;48.588;9.250;2023-02-04T11:36:11;9.00;99.90
18041;DHT22;9145;48.588;9.250;2023-02-04T11:38:43;9.10;99.90
18041;DHT22;9145;48.588;9.250;2023-02-04T11:41:15;9.30;99.90
18041;DHT22;9145;48.588;9.250;2023-02-04T11:43:43;9.60;99.90
18041;DHT22;9145;48.588;9.250;2023-02-04T11:46:13;9.70;99.90
18041;DHT22;9145;48.588;9.250;2023-02-04T11:48:41;9.70;99.90
18041;DHT22;9145;48.588;9.250;2023-02-04T11:51:11;9.80;99.90
18041;DHT22;9145;48.588;9.250;2023-02-04T11:53:38;10.00;99.90
18041;DHT22;9145;48.588;9.250;2023-02-04T11:56:05;10.20;99.90
18041;DHT22;9145;48.588;9.250;2023-02-04T11:58:32;10.10;99.90
18041;DHT22;9145;48.588;9.250;2023-02-04T12:01:00;10.10;99.90
18041;DHT22;9145;48.588;9.250;2023-02-04T12:03:29;10.00;99.90
18041;DHT22;9145;48.588;9.250;2023-02-04T12:05:57;9.80;99.90
18041;DHT22;9145;48.588;9.250;2023-02-04T12:08:30;9.50;99.90
18041;DHT22;9145;48.588;9.250;2023-02-04T12:11:06;9.30;99.90
18041;DHT22;9145;48.588;9.250;2023-02-04T12:13:45;9.20;99.90
18041;DHT22;9145;48.588;9.250;2023-02-04T12:16:14;9.00;99.90
18041;DHT22;9145;48.588;9.250;2023-02-04T12:18:41;8.90;99.90
18041;DHT22;9145;48.588;9.250;2023-02-04T12:21:08;8.90;99.90
18041;DHT22;9145;48.588;9.250;2023-02-04T12:23:34;8.80;99.90
18041;DHT22;9145;48.588;9.250;2023-02-04T12:26:01;8.80;99.90
18041;DHT22;9145;48.588;9.250;2023-02-04T12:28:28;8.70;99.90
18041;DHT22;9145;48.588;9.250;2023-02-04T12:30:55;8.90;99.90
18041;DHT22;9145;48.588;9.250;2023-02-04T12:33:23;8.80;99.90
18041;DHT22;9145;48.588;9.250;2023-02-04T12:35:50;8.90;99.90
18041;DHT22;9145;48.588;9.250;2023-02-04T12:38:17;9.00;99.90
18041;DHT22;9145;48.588;9.250;2023-02-04T12:40:44;9.10;99.90
18041;DHT22;9145;48.588;9.250;2023-02-04T12:43:11;9.10;99.90
18041;DHT22;9145;48.588;9.250;2023-02-04T12:45:38;9.00;99.90
18041;DHT22;9145;48.588;9.250;2023-02-04T12:48:10;8.80;99.90
18041;DHT22;9145;48.588;9.250;2023-02-04T12:50:38;8.80;99.90
18041;DHT22;9145;48.588;9.250;2023-02-04T12:53:04;8.70;99.90
18041;DHT22;9145;48.588;9.250;2023-02-04T12:55:31;8.60;99.90
18041;DHT22;9145;48.588;9.250;2023-02-04T12:57:58;8.50;99.90
18041;DHT22;9145;48.588;9.250;2023-02-04T13:00:25;8.50;99.90
18041;DHT22;9145;48.588;9.250;2023-02-04T13:02:52;8.50;99.90
18041;DHT22;9145;48.588;9.250;2023-02-04T13:05:20;8.50;99.90
18041;DHT22;9145;48.588;9.250;2023-02-04T13:07:48;8.30;99.90
18041;DHT22;9145;48.588;9.250;2023-02-04T13:10:15;8.10;99.90
18041;DHT22;9145;48.588;9.250;2023-02-04T13:12:42;7.90;99.90
18041;DHT22;9145;48.588;9.250;2023-02-04T13:15:10;7.80;99.90
18041;DHT22;9145;48.588;9.250;2023-02-04T13:17:36;7.80;99.90
18041;DHT22;9145;48.588;9.250;2023-02-04T13:20:04;7.90;99.90
18041;DHT22;9145;48.588;9.250;2023-02-04T13:22:31;8.00;99.90
18041;DHT22;9145;48.588;9.250;2023-02-04T13:24:59;8.10;99.90
18041;DHT22;9145;48.588;9.250;2023-02-04T13:27:26;8.10;99.90
18041;DHT22;9145;48.588;9.250;2023-02-04T13:29:54;8.30;99.90
18041;DHT22;9145;48.588;9.250;2023-02-04T13:32:20;8.50;99.90
18041;DHT22;9145;48.588;9.250;2023-02-04T13:34:47;8.60;99.90
18041;DHT22;9145;48.588;9.250;2023-02-04T13:37:14;8.70;99.90
18041;DHT22;9145;48.588;9.250;2023-02-04T13:39:41;8.80;99.90
18041;DHT22;9145;48.588;9.250;2023-02-04T13:42:09;8.80;99.90
18041;DHT22;9145;48.588;9.250;2023-02-04T13:44:36;8.90;99.90
18041;DHT22;9145;48.588;9.250;2023-02-04T13:47:03;9.00;99.90
18041;DHT22;9145;48.588;9.250;2023-02-04T13:49:30;9.00;99.90
18041;DHT22;9145;48.588;9.250;2023-02-04T13:51:56;9.20;99.90
18041;DHT22;9145;48.588;9.250;2023-02-04T13:54:23;9.20;99.90
18041;DHT22;9145;48.588;9.250;2023-02-04T13:56:50;9.30;99.90
18041;DHT22;9145;48.588;9.250;2023-02-04T13:59:18;9.30;99.90
18041;DHT22;9145;48.588;9.250;2023-02-04T14:01:45;9.40;99.90
18041;DHT22;9145;48.588;9.250;2023-02-04T14:04:12;9.40;99.90
18041;DHT22;9145;48.588;9.250;2023-02-04T14:06:39;9.40;99.90
18041;DHT22;9145;48.588;9.250;2023-02-04T14:09:08;9.30;99.90
18041;DHT22;9145;48.588;9.250;2023-02-04T14:11:36;9.30;99.90
18041;DHT22;9145;48.588;9.250;2023-02-04T14:14:03;9.40;99.90
18041;DHT22;9145;48.588;9.250;2023-02-04T14:16:31;9.30;99.90
18041;DHT22;9145;48.588;9.250;2023-02-04T14:18:57;9.30;99.90
18041;DHT22;9145;48.588;9.250;2023-02-04T14:21:24;9.20;99.90
18041;DHT22;9145;48.588;9.250;2023-02-04T14:23:51;9.10;99.90
18041;DHT22;9145;48.588;9.250;2023-02-04T14:26:18;9.10;99.90
18041;DHT22;9145;48.588;9.250;2023-02-04T14:28:45;9.00;99.90
18041;DHT22;9145;48.588;9.250;2023-02-04T14:31:11;8.80;99.90
18041;DHT22;9145;48.588;9.250;2023-02-04T14:33:40;8.70;99.90
18041;DHT22;9145;48.588;9.250;2023-02-04T14:36:07;8.70;99.90
18041;DHT22;9145;48.588;9.250;2023-02-04T14:38:33;8.70;99.90
18041;DHT22;9145;48.588;9.250;2023-02-04T14:41:00;8.60;99.90
18041;DHT22;9145;48.588;9.250;2023-02-04T14:43:27;8.60;99.90
18041;DHT22;9145;48.588;9.250;2023-02-04T14:45:54;8.60;99.90
18041;DHT22;9145;48.588;9.250;2023-02-04T14:48:21;8.60;99.90
18041;DHT22;9145;48.588;9.250;2023-02-04T14:50:49;8.50;99.90
18041;DHT22;9145;48.588;9.250;2023-02-04T14:53:16;8.50;99.90
18041;DHT22;9145;48.588;9.250;2023-02-04T14:55:42;8.50;99.90
18041;DHT22;9145;48.588;9.250;2023-02-04T14:58:09;8.50;99.90
18041;DHT22;9145;48.588;9.250;2023-02-04T15:00:36;8.70;99.90
18041;DHT22;9145;48.588;9.250;2023-02-04T15:03:03;8.90;99.90
18041;DHT22;9145;48.588;9.250;2023-02-04T15:05:30;9.20;99.90
18041;DHT22;9145;48.588;9.250;2023-02-04T15:07:58;9.40;99.90
18041;DHT22;9145;48.588;9.250;2023-02-04T15:10:25;9.60;99.90
18041;DHT22;9145;48.588;9.250;2023-02-04T15:12:51;9.80;99.90
18041;DHT22;9145;48.588;9.250;2023-02-04T15:15:19;10.00;99.90
18041;DHT22;9145;48.588;9.250;2023-02-04T15:17:46;10.20;99.90
18041;DHT22;9145;48.588;9.250;2023-02-04T15:20:15;10.50;99.90
18041;DHT22;9145;48.588;9.250;2023-02-04T15:22:42;10.70;99.90
18041;DHT22;9145;48.588;9.250;2023-02-04T15:25:11;11.10;99.90
18041;DHT22;9145;48.588;9.250;2023-02-04T15:27:38;11.30;99.90
18041;DHT22;9145;48.588;9.250;2023-02-04T15:30:05;11.20;99.90
18041;DHT22;9145;48.588;9.250;2023-02-04T15:32:32;10.80;99.90
18041;DHT22;9145;48.588;9.250;2023-02-04T15:34:59;10.40;99.90
18041;DHT22;9145;48.588;9.250;2023-02-04T15:37:25;9.90;99.90
18041;DHT22;9145;48.588;9.250;2023-02-04T15:39:52;9.60;99.90
18041;DHT22;9145;48.588;9.250;2023-02-04T15:42:21;9.40;99.90
18041;DHT22;9145;48.588;9.250;2023-02-04T15:44:48;9.10;99.90
18041;DHT22;9145;48.588;9.250;2023-02-04T15:47:15;9.00;99.90
18041;DHT22;9145;48.588;9.250;2023-02-04T15:49:41;8.90;99.90
18041;DHT22;9145;48.588;9.250;2023-02-04T15:52:08;8.80;99.90
18041;DHT22;9145;48.588;9.250;2023-02-04T15:54:35;8.80;99.90
18041;DHT22;9145;48.588;9.250;2023-02-04T15:57:02;8.80;99.90
18041;DHT22;9145;48.588;9.250;2023-02-04T15:59:30;8.90;99.90
18041;DHT22;9145;48.588;9.250;2023-02-04T16:01:57;9.10;99.90
18041;DHT22;9145;48.588;9.250;2023-02-04T16:04:24;9.10;99.90